sensor_id;sensor_type;location;lat;lon;timestamp;pressure;altitude;pressure_sealevel;temperature;humidity
77410;BME280;66481;51.332;22.804;2023-03-01T00:02:01;100922.34;;;-4.75;87.69
77410;BME280;66481;51.332;22.804;2023-03-01T00:06:03;100917.94;;;-4.91;87.40
77410;BME280;66481;51.332;22.804;2023-03-01T00:10:05;100927.38;;;-4.90;87.29
77410;BME280;66481;51.332;22.804;2023-03-01T00:14:07;100909.44;;;-4.79;87.69
77410;BME280;66481;51.332;22.804;2023-03-01T00:18:08;100905.22;;;-4.65;86.71
77410;BME280;66481;51.332;22.804;2023-03-01T00:22:10;100893.25;;;-4.57;86.42
77410;BME280;66481;51.332;22.804;2023-03-01T00:26:13;100896.72;;;-4.50;85.86
77410;BME280;66481;51.332;22.804;2023-03-01T00:30:14;100884.72;;;-4.43;85.13
77410;BME280;66481;51.332;22.804;2023-03-01T00:34:16;100876.94;;;-4.45;84.70
77410;BME280;66481;51.332;22.804;2023-03-01T00:38:17;100874.47;;;-4.34;83.72
77410;BME280;66481;51.332;22.804;2023-03-01T00:42:19;100869.25;;;-4.39;84.07
77410;BME280;66481;51.332;22.804;2023-03-01T00:46:25;100861.56;;;-4.28;84.58
77410;BME280;66481;51.332;22.804;2023-03-01T00:50:27;100866.75;;;-4.25;83.37
77410;BME280;66481;51.332;22.804;2023-03-01T00:54:28;100875.34;;;-4.26;83.63
77410;BME280;66481;51.332;22.804;2023-03-01T00:58:30;100881.25;;;-4.45;84.68
77410;BME280;66481;51.332;22.804;2023-03-01T01:02:32;100869.06;;;-4.68;86.30
77410;BME280;66481;51.332;22.804;2023-03-01T01:06:39;100875.13;;;-4.63;86.01
77410;BME280;66481;51.332;22.804;2023-03-01T01:10:44;100876.00;;;-4.58;85.02
77410;BME280;66481;51.332;22.804;2023-03-01T01:14:45;100882.00;;;-4.63;84.31
77410;BME280;66481;51.332;22.804;2023-03-01T01:18:47;100885.41;;;-4.67;85.46
77410;BME280;66481;51.332;22.804;2023-03-01T01:22:48;100883.66;;;-4.72;85.10
77410;BME280;66481;51.332;22.804;2023-03-01T01:26:50;100867.28;;;-4.75;85.10
77410;BME280;66481;51.332;22.804;2023-03-01T01:30:51;100873.28;;;-4.78;85.85
77410;BME280;66481;51.332;22.804;2023-03-01T01:34:55;100877.50;;;-4.87;84.89
77410;BME280;66481;51.332;22.804;2023-03-01T01:38:57;100867.13;;;-4.94;86.20
77410;BME280;66481;51.332;22.804;2023-03-01T01:42:58;100853.44;;;-4.85;86.12
77410;BME280;66481;51.332;22.804;2023-03-01T01:47:20;100846.53;;;-4.89;85.48
77410;BME280;66481;51.332;22.804;2023-03-01T01:56:50;100845.59;;;-4.97;86.81
77410;BME280;66481;51.332;22.804;2023-03-01T02:00:54;100831.06;;;-4.86;85.29
77410;BME280;66481;51.332;22.804;2023-03-01T02:05:14;100822.44;;;-4.89;86.15
77410;BME280;66481;51.332;22.804;2023-03-01T02:09:20;100818.13;;;-4.91;86.87
77410;BME280;66481;51.332;22.804;2023-03-01T02:13:23;100838.66;;;-5.06;86.77
77410;BME280;66481;51.332;22.804;2023-03-01T02:17:24;100821.47;;;-5.01;87.56
77410;BME280;66481;51.332;22.804;2023-03-01T02:30:01;100812.91;;;-4.97;86.76
77410;BME280;66481;51.332;22.804;2023-03-01T02:34:04;100818.97;;;-4.93;86.15
77410;BME280;66481;51.332;22.804;2023-03-01T02:38:07;100820.66;;;-4.95;86.13
77410;BME280;66481;51.332;22.804;2023-03-01T02:42:13;100816.38;;;-4.95;86.39
77410;BME280;66481;51.332;22.804;2023-03-01T02:46:24;100815.50;;;-4.95;86.03
77410;BME280;66481;51.332;22.804;2023-03-01T02:58:32;100802.56;;;-5.00;86.22
77410;BME280;66481;51.332;22.804;2023-03-01T03:02:41;100806.94;;;-4.88;86.37
77410;BME280;66481;51.332;22.804;2023-03-01T03:06:44;100800.09;;;-4.87;86.28
77410;BME280;66481;51.332;22.804;2023-03-01T03:10:46;100787.25;;;-4.75;86.67
77410;BME280;66481;51.332;22.804;2023-03-01T03:14:47;100790.75;;;-4.68;85.58
77410;BME280;66481;51.332;22.804;2023-03-01T03:18:50;100780.44;;;-4.61;84.78
77410;BME280;66481;51.332;22.804;2023-03-01T03:22:53;100764.09;;;-4.60;85.33
77410;BME280;66481;51.332;22.804;2023-03-01T03:26:55;100784.84;;;-4.38;85.14
77410;BME280;66481;51.332;22.804;2023-03-01T03:30:57;100784.84;;;-4.38;85.13
77410;BME280;66481;51.332;22.804;2023-03-01T03:34:59;100778.84;;;-4.37;84.59
77410;BME280;66481;51.332;22.804;2023-03-01T03:39:00;100772.78;;;-4.42;84.84
77410;BME280;66481;51.332;22.804;2023-03-01T03:43:04;100770.19;;;-4.47;85.06
77410;BME280;66481;51.332;22.804;2023-03-01T03:47:05;100765.00;;;-4.53;85.24
77410;BME280;66481;51.332;22.804;2023-03-01T03:51:09;100764.97;;;-4.59;86.68
77410;BME280;66481;51.332;22.804;2023-03-01T03:55:12;100746.03;;;-4.55;85.47
77410;BME280;66481;51.332;22.804;2023-03-01T04:04:34;100746.09;;;-4.46;85.57
77410;BME280;66481;51.332;22.804;2023-03-01T04:08:35;100735.75;;;-4.40;85.50
77410;BME280;66481;51.332;22.804;2023-03-01T04:12:36;100735.78;;;-4.44;85.62
77410;BME280;66481;51.332;22.804;2023-03-01T04:16:37;100746.97;;;-4.41;85.67
77410;BME280;66481;51.332;22.804;2023-03-01T04:20:39;100746.09;;;-4.38;86.72
77410;BME280;66481;51.332;22.804;2023-03-01T04:24:39;100731.47;;;-4.35;86.25
77410;BME280;66481;51.332;22.804;2023-03-01T04:28:42;100724.59;;;-4.29;85.93
77410;BME280;66481;51.332;22.804;2023-03-01T04:32:46;100733.22;;;-4.30;86.28
77410;BME280;66481;51.332;22.804;2023-03-01T04:36:48;100727.22;;;-4.25;86.09
77410;BME280;66481;51.332;22.804;2023-03-01T04:40:49;100716.84;;;-4.29;85.61
77410;BME280;66481;51.332;22.804;2023-03-01T04:44:50;100726.34;;;-4.30;85.72
77410;BME280;66481;51.332;22.804;2023-03-01T04:48:52;100744.44;;;-4.25;86.02
77410;BME280;66481;51.332;22.804;2023-03-01T04:52:53;100756.44;;;-4.44;86.78
77410;BME280;66481;51.332;22.804;2023-03-01T04:56:57;100752.09;;;-4.47;88.21
77410;BME280;66481;51.332;22.804;2023-03-01T05:00:58;100736.66;;;-4.31;86.39
77410;BME280;66481;51.332;22.804;2023-03-01T05:04:59;100738.47;;;-4.13;86.17
77410;BME280;66481;51.332;22.804;2023-03-01T05:09:01;100728.94;;;-4.22;86.38
77410;BME280;66481;51.332;22.804;2023-03-01T05:18:18;100709.13;;;-4.17;87.43
77410;BME280;66481;51.332;22.804;2023-03-01T05:22:20;100709.19;;;-3.97;86.14
77410;BME280;66481;51.332;22.804;2023-03-01T05:26:22;100710.06;;;-3.83;85.67
77410;BME280;66481;51.332;22.804;2023-03-01T05:30:28;100724.75;;;-3.68;85.50
77410;BME280;66481;51.332;22.804;2023-03-01T05:34:32;100731.66;;;-3.45;84.40
77410;BME280;66481;51.332;22.804;2023-03-01T05:38:34;100739.41;;;-3.33;83.57
77410;BME280;66481;51.332;22.804;2023-03-01T05:42:36;100744.59;;;-3.17;84.16
77410;BME280;66481;51.332;22.804;2023-03-01T05:46:37;100740.22;;;-2.81;82.48
77410;BME280;66481;51.332;22.804;2023-03-01T05:50:43;100744.44;;;-2.53;81.43
77410;BME280;66481;51.332;22.804;2023-03-01T05:54:45;100741.78;;;-2.30;80.69
77410;BME280;66481;51.332;22.804;2023-03-01T05:58:48;100742.56;;;-2.18;80.86
77410;BME280;66481;51.332;22.804;2023-03-01T06:02:54;100729.50;;;-1.95;79.04
77410;BME280;66481;51.332;22.804;2023-03-01T06:06:56;100737.91;;;-1.59;78.84
77410;BME280;66481;51.332;22.804;2023-03-01T06:10:57;100738.38;;;-1.13;77.10
77410;BME280;66481;51.332;22.804;2023-03-01T06:14:58;100748.94;;;-0.44;73.91
77410;BME280;66481;51.332;22.804;2023-03-01T06:18:59;100735.22;;;0.67;73.56
77410;BME280;66481;51.332;22.804;2023-03-01T06:23:00;100732.38;;;1.31;68.85
77410;BME280;66481;51.332;22.804;2023-03-01T06:27:01;100726.97;;;1.84;67.98
77410;BME280;66481;51.332;22.804;2023-03-01T06:31:03;100728.31;;;2.77;63.61
77410;BME280;66481;51.332;22.804;2023-03-01T06:35:05;100709.06;;;3.75;63.26
77410;BME280;66481;51.332;22.804;2023-03-01T06:39:06;100714.19;;;4.36;57.80
77410;BME280;66481;51.332;22.804;2023-03-01T06:43:07;100702.00;;;4.62;54.81
77410;BME280;66481;51.332;22.804;2023-03-01T06:47:10;100716.22;;;6.04;52.85
77410;BME280;66481;51.332;22.804;2023-03-01T06:51:12;100716.78;;;6.11;51.76
77410;BME280;66481;51.332;22.804;2023-03-01T06:55:13;100703.22;;;6.66;50.01
77410;BME280;66481;51.332;22.804;2023-03-01T06:59:15;100702.63;;;7.21;49.17
77410;BME280;66481;51.332;22.804;2023-03-01T07:03:16;100695.53;;;7.23;46.66
77410;BME280;66481;51.332;22.804;2023-03-01T07:07:17;100688.66;;;7.39;45.42
77410;BME280;66481;51.332;22.804;2023-03-01T07:11:18;100689.56;;;7.78;46.58
77410;BME280;66481;51.332;22.804;2023-03-01T07:15:19;100685.75;;;8.02;44.54
77410;BME280;66481;51.332;22.804;2023-03-01T07:19:21;100688.00;;;8.83;43.34
77410;BME280;66481;51.332;22.804;2023-03-01T07:23:22;100693.50;;;8.78;44.18
77410;BME280;66481;51.332;22.804;2023-03-01T07:27:23;100694.81;;;9.55;41.31
77410;BME280;66481;51.332;22.804;2023-03-01T07:31:24;100694.69;;;9.90;40.42
77410;BME280;66481;51.332;22.804;2023-03-01T07:35:28;100685.22;;;10.02;39.83
77410;BME280;66481;51.332;22.804;2023-03-01T07:39:29;100680.97;;;10.31;38.33
77410;BME280;66481;51.332;22.804;2023-03-01T07:43:30;100684.66;;;10.89;39.06
77410;BME280;66481;51.332;22.804;2023-03-01T07:47:32;100694.47;;;11.18;37.25
77410;BME280;66481;51.332;22.804;2023-03-01T07:51:33;100693.66;;;11.01;36.32
77410;BME280;66481;51.332;22.804;2023-03-01T07:55:35;100685.06;;;10.98;36.71
77410;BME280;66481;51.332;22.804;2023-03-01T07:59:37;100681.94;;;11.05;36.39
77410;BME280;66481;51.332;22.804;2023-03-01T08:03:39;100679.31;;;12.19;35.59
77410;BME280;66481;51.332;22.804;2023-03-01T08:07:40;100684.13;;;13.07;34.40
77410;BME280;66481;51.332;22.804;2023-03-01T08:11:41;100681.38;;;12.01;33.08
77410;BME280;66481;51.332;22.804;2023-03-01T08:15:43;100688.25;;;12.98;32.72
77410;BME280;66481;51.332;22.804;2023-03-01T08:19:44;100683.47;;;13.54;32.22
77410;BME280;66481;51.332;22.804;2023-03-01T08:23:45;100694.22;;;13.53;31.57
77410;BME280;66481;51.332;22.804;2023-03-01T08:27:47;100691.00;;;13.09;32.66
77410;BME280;66481;51.332;22.804;2023-03-01T08:31:48;100686.66;;;12.43;33.30
77410;BME280;66481;51.332;22.804;2023-03-01T08:35:49;100687.53;;;11.15;35.05
77410;BME280;66481;51.332;22.804;2023-03-01T08:39:50;100700.63;;;9.62;38.92
77410;BME280;66481;51.332;22.804;2023-03-01T08:43:51;100707.81;;;9.43;39.98
77410;BME280;66481;51.332;22.804;2023-03-01T08:47:53;100711.19;;;9.11;39.71
77410;BME280;66481;51.332;22.804;2023-03-01T08:51:54;100715.16;;;9.87;37.19
77410;BME280;66481;51.332;22.804;2023-03-01T08:55:59;100712.41;;;10.68;36.51
77410;BME280;66481;51.332;22.804;2023-03-01T09:00:01;100701.47;;;11.91;34.76
77410;BME280;66481;51.332;22.804;2023-03-01T09:04:03;100694.81;;;11.69;34.09
77410;BME280;66481;51.332;22.804;2023-03-01T09:08:05;100699.53;;;11.21;35.71
77410;BME280;66481;51.332;22.804;2023-03-01T09:12:06;100705.00;;;10.43;37.09
77410;BME280;66481;51.332;22.804;2023-03-01T09:16:08;100697.59;;;10.80;36.30
77410;BME280;66481;51.332;22.804;2023-03-01T09:20:10;100700.13;;;10.03;37.80
77410;BME280;66481;51.332;22.804;2023-03-01T09:24:14;100703.47;;;10.54;37.24
77410;BME280;66481;51.332;22.804;2023-03-01T09:28:16;100704.91;;;10.28;38.45
77410;BME280;66481;51.332;22.804;2023-03-01T09:32:17;100693.56;;;10.72;36.61
77410;BME280;66481;51.332;22.804;2023-03-01T09:36:21;100690.84;;;11.33;37.12
77410;BME280;66481;51.332;22.804;2023-03-01T09:40:26;100686.25;;;13.02;34.24
77410;BME280;66481;51.332;22.804;2023-03-01T09:44:54;100674.75;;;13.52;31.27
77410;BME280;66481;51.332;22.804;2023-03-01T09:49:02;100666.38;;;14.44;30.34
77410;BME280;66481;51.332;22.804;2023-03-01T09:53:07;100669.16;;;14.18;31.66
77410;BME280;66481;51.332;22.804;2023-03-01T09:57:30;100665.56;;;14.06;31.03
77410;BME280;66481;51.332;22.804;2023-03-01T10:02:24;100667.94;;;13.61;32.15
77410;BME280;66481;51.332;22.804;2023-03-01T10:06:20;100658.81;;;13.52;33.48
77410;BME280;66481;51.332;22.804;2023-03-01T10:10:43;100654.50;;;14.37;31.86
77410;BME280;66481;51.332;22.804;2023-03-01T10:19:00;100658.28;;;12.96;36.23
77410;BME280;66481;51.332;22.804;2023-03-01T10:23:04;100654.56;;;13.50;35.43
77410;BME280;66481;51.332;22.804;2023-03-01T10:27:11;100653.63;;;13.88;34.39
77410;BME280;66481;51.332;22.804;2023-03-01T10:31:20;100646.03;;;11.30;38.09
77410;BME280;66481;51.332;22.804;2023-03-01T10:35:28;100661.16;;;10.07;41.18
77410;BME280;66481;51.332;22.804;2023-03-01T10:39:29;100651.59;;;9.72;41.77
77410;BME280;66481;51.332;22.804;2023-03-01T10:43:43;100660.75;;;9.00;44.66
77410;BME280;66481;51.332;22.804;2023-03-01T10:47:45;100652.25;;;8.77;46.13
77410;BME280;66481;51.332;22.804;2023-03-01T10:51:48;100636.66;;;9.06;46.02
77410;BME280;66481;51.332;22.804;2023-03-01T10:56:09;100641.72;;;9.92;46.09
77410;BME280;66481;51.332;22.804;2023-03-01T11:00:18;100625.34;;;12.33;40.22
77410;BME280;66481;51.332;22.804;2023-03-01T11:04:23;100628.41;;;12.67;39.24
77410;BME280;66481;51.332;22.804;2023-03-01T11:08:36;100624.50;;;12.98;39.57
77410;BME280;66481;51.332;22.804;2023-03-01T11:12:37;100629.16;;;12.94;40.14
77410;BME280;66481;51.332;22.804;2023-03-01T11:16:43;100623.22;;;11.13;43.68
77410;BME280;66481;51.332;22.804;2023-03-01T11:20:45;100620.38;;;11.16;42.44
77410;BME280;66481;51.332;22.804;2023-03-01T11:24:53;100637.50;;;9.24;46.72
77410;BME280;66481;51.332;22.804;2023-03-01T11:28:58;100632.00;;;9.11;48.77
77410;BME280;66481;51.332;22.804;2023-03-01T11:33:10;100623.03;;;9.63;47.91
77410;BME280;66481;51.332;22.804;2023-03-01T11:37:21;100612.31;;;10.75;44.09
77410;BME280;66481;51.332;22.804;2023-03-01T11:41:29;100616.53;;;10.16;44.22
77410;BME280;66481;51.332;22.804;2023-03-01T11:45:52;100614.94;;;9.66;46.47
77410;BME280;66481;51.332;22.804;2023-03-01T11:50:11;100613.84;;;10.02;44.32
77410;BME280;66481;51.332;22.804;2023-03-01T12:25:04;100614.69;;;6.24;57.27
77410;BME280;66481;51.332;22.804;2023-03-01T12:33:40;100601.16;;;6.94;55.38
77410;BME280;66481;51.332;22.804;2023-03-01T12:43:07;100602.69;;;7.57;53.83
77410;BME280;66481;51.332;22.804;2023-03-01T12:51:11;100597.75;;;6.72;57.32
77410;BME280;66481;51.332;22.804;2023-03-01T12:55:36;100599.13;;;6.81;56.79
77410;BME280;66481;51.332;22.804;2023-03-01T12:59:58;100587.50;;;6.66;57.17
77410;BME280;66481;51.332;22.804;2023-03-01T13:16:54;100579.06;;;7.18;54.50
77410;BME280;66481;51.332;22.804;2023-03-01T13:20:56;100580.66;;;6.82;55.96
77410;BME280;66481;51.332;22.804;2023-03-01T13:25:12;100584.25;;;6.80;56.23
77410;BME280;66481;51.332;22.804;2023-03-01T13:29:26;100581.56;;;6.40;56.87
77410;BME280;66481;51.332;22.804;2023-03-01T13:37:34;100581.16;;;6.08;59.44
77410;BME280;66481;51.332;22.804;2023-03-01T13:56:28;100573.84;;;6.37;57.39
77410;BME280;66481;51.332;22.804;2023-03-01T14:00:39;100567.06;;;6.31;58.05
77410;BME280;66481;51.332;22.804;2023-03-01T14:04:40;100562.34;;;6.39;57.87
77410;BME280;66481;51.332;22.804;2023-03-01T14:08:42;100563.03;;;6.64;56.95
77410;BME280;66481;51.332;22.804;2023-03-01T14:12:57;100556.09;;;6.82;55.62
77410;BME280;66481;51.332;22.804;2023-03-01T14:21:30;100551.63;;;6.44;57.36
77410;BME280;66481;51.332;22.804;2023-03-01T14:25:33;100547.22;;;6.45;57.45
77410;BME280;66481;51.332;22.804;2023-03-01T14:29:37;100531.47;;;6.02;58.39
77410;BME280;66481;51.332;22.804;2023-03-01T14:33:38;100537.16;;;5.69;58.87
77410;BME280;66481;51.332;22.804;2023-03-01T15:02:48;100531.09;;;4.02;66.54
77410;BME280;66481;51.332;22.804;2023-03-01T15:06:52;100535.16;;;3.84;66.49
77410;BME280;66481;51.332;22.804;2023-03-01T15:11:05;100532.94;;;3.71;67.72
77410;BME280;66481;51.332;22.804;2023-03-01T15:19:30;100515.03;;;3.31;68.37
77410;BME280;66481;51.332;22.804;2023-03-01T15:23:32;100518.53;;;3.30;68.87
77410;BME280;66481;51.332;22.804;2023-03-01T15:27:33;100510.34;;;3.12;69.17
77410;BME280;66481;51.332;22.804;2023-03-01T15:31:36;100515.31;;;2.92;69.37
77410;BME280;66481;51.332;22.804;2023-03-01T15:35:42;100510.34;;;2.82;69.38
77410;BME280;66481;51.332;22.804;2023-03-01T15:39:56;100509.31;;;2.58;70.75
77410;BME280;66481;51.332;22.804;2023-03-01T15:43:59;100507.03;;;2.46;71.15
77410;BME280;66481;51.332;22.804;2023-03-01T15:48:02;100507.22;;;2.38;70.59
77410;BME280;66481;51.332;22.804;2023-03-01T15:52:19;100509.78;;;2.07;72.54
77410;BME280;66481;51.332;22.804;2023-03-01T15:56:22;100503.31;;;1.89;72.49
77410;BME280;66481;51.332;22.804;2023-03-01T16:00:24;100502.56;;;1.84;72.27
77410;BME280;66481;51.332;22.804;2023-03-01T16:04:25;100503.06;;;1.98;71.88
77410;BME280;66481;51.332;22.804;2023-03-01T16:08:27;100499.53;;;1.65;73.04
77410;BME280;66481;51.332;22.804;2023-03-01T16:12:28;100512.88;;;1.53;74.30
77410;BME280;66481;51.332;22.804;2023-03-01T16:16:29;100509.31;;;1.18;75.27
77410;BME280;66481;51.332;22.804;2023-03-01T16:20:30;100516.88;;;1.30;76.01
77410;BME280;66481;51.332;22.804;2023-03-01T16:24:32;100520.75;;;1.10;75.84
77410;BME280;66481;51.332;22.804;2023-03-01T16:28:33;100513.97;;;1.03;76.33
77410;BME280;66481;51.332;22.804;2023-03-01T16:32:38;100522.25;;;0.82;77.04
77410;BME280;66481;51.332;22.804;2023-03-01T16:36:42;100529.53;;;0.66;77.33
77410;BME280;66481;51.332;22.804;2023-03-01T16:40:48;100531.41;;;0.58;78.50
77410;BME280;66481;51.332;22.804;2023-03-01T16:44:54;100520.72;;;0.71;79.17
77410;BME280;66481;51.332;22.804;2023-03-01T16:48:56;100523.41;;;0.67;80.37
77410;BME280;66481;51.332;22.804;2023-03-01T16:52:58;100517.25;;;0.24;82.40
77410;BME280;66481;51.332;22.804;2023-03-01T17:02:02;100533.56;;;-0.14;81.86
77410;BME280;66481;51.332;22.804;2023-03-01T17:06:06;100535.41;;;-0.23;83.26
77410;BME280;66481;51.332;22.804;2023-03-01T17:10:09;100540.66;;;-0.24;83.75
77410;BME280;66481;51.332;22.804;2023-03-01T17:14:11;100533.47;;;-0.08;82.54
77410;BME280;66481;51.332;22.804;2023-03-01T17:18:12;100514.97;;;-0.46;84.42
77410;BME280;66481;51.332;22.804;2023-03-01T17:22:14;100517.09;;;-0.71;84.15
77410;BME280;66481;51.332;22.804;2023-03-01T17:26:17;100513.56;;;-0.67;84.95
77410;BME280;66481;51.332;22.804;2023-03-01T17:30:19;100516.25;;;-0.74;84.29
77410;BME280;66481;51.332;22.804;2023-03-01T17:34:22;100514.63;;;-0.80;84.17
77410;BME280;66481;51.332;22.804;2023-03-01T17:38:24;100510.50;;;-0.36;84.49
77410;BME280;66481;51.332;22.804;2023-03-01T17:42:29;100507.94;;;-0.39;84.54
77410;BME280;66481;51.332;22.804;2023-03-01T17:46:31;100521.31;;;-0.62;85.41
77410;BME280;66481;51.332;22.804;2023-03-01T17:50:36;100518.97;;;-0.82;85.93
77410;BME280;66481;51.332;22.804;2023-03-01T17:54:38;100524.38;;;-0.98;87.49
77410;BME280;66481;51.332;22.804;2023-03-01T17:58:41;100521.50;;;-0.76;86.03
77410;BME280;66481;51.332;22.804;2023-03-01T18:02:43;100520.25;;;-0.50;85.16
77410;BME280;66481;51.332;22.804;2023-03-01T18:06:46;100521.09;;;-0.48;85.07
77410;BME280;66481;51.332;22.804;2023-03-01T18:10:47;100523.84;;;-0.61;84.66
77410;BME280;66481;51.332;22.804;2023-03-01T18:14:49;100528.41;;;-0.75;85.09
77410;BME280;66481;51.332;22.804;2023-03-01T18:18:54;100532.72;;;-0.74;85.09
77410;BME280;66481;51.332;22.804;2023-03-01T18:22:56;100532.78;;;-0.77;84.37
77410;BME280;66481;51.332;22.804;2023-03-01T18:26:58;100536.31;;;-0.81;85.12
77410;BME280;66481;51.332;22.804;2023-03-01T18:31:03;100534.00;;;-1.04;84.96
77410;BME280;66481;51.332;22.804;2023-03-01T18:35:06;100536.88;;;-1.27;84.77
77410;BME280;66481;51.332;22.804;2023-03-01T18:39:07;100529.22;;;-1.38;85.65
77410;BME280;66481;51.332;22.804;2023-03-01T18:43:09;100522.09;;;-1.22;87.72
77410;BME280;66481;51.332;22.804;2023-03-01T18:47:11;100518.34;;;-1.00;86.79
77410;BME280;66481;51.332;22.804;2023-03-01T18:51:17;100527.66;;;-0.83;85.39
77410;BME280;66481;51.332;22.804;2023-03-01T18:55:19;100533.75;;;-0.86;86.01
77410;BME280;66481;51.332;22.804;2023-03-01T18:59:22;100532.66;;;-0.69;85.53
77410;BME280;66481;51.332;22.804;2023-03-01T19:03:27;100519.25;;;-0.42;84.22
77410;BME280;66481;51.332;22.804;2023-03-01T19:07:28;100530.31;;;-0.29;83.48
77410;BME280;66481;51.332;22.804;2023-03-01T19:11:30;100531.28;;;-0.33;83.35
77410;BME280;66481;51.332;22.804;2023-03-01T19:15:32;100527.88;;;-0.38;83.27
77410;BME280;66481;51.332;22.804;2023-03-01T19:19:35;100531.13;;;-0.25;82.86
77410;BME280;66481;51.332;22.804;2023-03-01T19:23:36;100528.50;;;-0.22;82.26
77410;BME280;66481;51.332;22.804;2023-03-01T19:27:39;100523.94;;;-0.09;80.74
77410;BME280;66481;51.332;22.804;2023-03-01T19:31:40;100535.13;;;-0.04;80.50
77410;BME280;66481;51.332;22.804;2023-03-01T19:35:42;100529.75;;;0.05;78.82
77410;BME280;66481;51.332;22.804;2023-03-01T19:39:44;100530.53;;;0.10;78.42
77410;BME280;66481;51.332;22.804;2023-03-01T19:43:45;100534.06;;;0.08;78.30
77410;BME280;66481;51.332;22.804;2023-03-01T19:47:48;100528.91;;;0.03;78.80
77410;BME280;66481;51.332;22.804;2023-03-01T19:51:51;100540.38;;;-0.09;79.66
77410;BME280;66481;51.332;22.804;2023-03-01T19:56:00;100540.25;;;0.01;79.04
77410;BME280;66481;51.332;22.804;2023-03-01T20:00:03;100549.91;;;-0.06;78.41
77410;BME280;66481;51.332;22.804;2023-03-01T20:04:05;100544.47;;;0.08;78.01
77410;BME280;66481;51.332;22.804;2023-03-01T20:08:06;100554.00;;;0.09;78.56
77410;BME280;66481;51.332;22.804;2023-03-01T20:12:09;100551.72;;;-0.11;79.16
77410;BME280;66481;51.332;22.804;2023-03-01T20:16:14;100563.34;;;-0.34;79.74
77410;BME280;66481;51.332;22.804;2023-03-01T20:20:15;100550.72;;;-0.59;80.45
77410;BME280;66481;51.332;22.804;2023-03-01T20:24:17;100545.66;;;-0.69;80.67
77410;BME280;66481;51.332;22.804;2023-03-01T20:28:18;100556.97;;;-0.73;81.45
77410;BME280;66481;51.332;22.804;2023-03-01T20:32:20;100550.16;;;-0.81;81.99
77410;BME280;66481;51.332;22.804;2023-03-01T20:36:21;100559.91;;;-0.98;86.97
77410;BME280;66481;51.332;22.804;2023-03-01T20:40:23;100562.81;;;-1.24;87.38
77410;BME280;66481;51.332;22.804;2023-03-01T20:44:28;100565.44;;;-1.27;88.84
77410;BME280;66481;51.332;22.804;2023-03-01T20:48:32;100566.25;;;-1.22;87.97
77410;BME280;66481;51.332;22.804;2023-03-01T21:08:38;100543.78;;;-0.60;81.13
77410;BME280;66481;51.332;22.804;2023-03-01T21:12:39;100552.06;;;-0.33;80.04
77410;BME280;66481;51.332;22.804;2023-03-01T21:16:41;100554.53;;;-0.24;79.12
77410;BME280;66481;51.332;22.804;2023-03-01T21:20:45;100545.72;;;-0.15;79.04
77410;BME280;66481;51.332;22.804;2023-03-01T21:24:46;100538.66;;;-0.08;79.04
77410;BME280;66481;51.332;22.804;2023-03-01T21:28:52;100540.31;;;-0.03;78.38
77410;BME280;66481;51.332;22.804;2023-03-01T21:32:55;100554.19;;;-0.04;79.34
77410;BME280;66481;51.332;22.804;2023-03-01T21:36:57;100536.91;;;-0.08;79.49
77410;BME280;66481;51.332;22.804;2023-03-01T21:41:03;100542.13;;;-0.08;78.14
77410;BME280;66481;51.332;22.804;2023-03-01T21:45:05;100549.03;;;-0.05;78.22
77410;BME280;66481;51.332;22.804;2023-03-01T21:49:09;100550.78;;;-0.07;78.13
77410;BME280;66481;51.332;22.804;2023-03-01T21:53:11;100548.38;;;-0.20;78.95
77410;BME280;66481;51.332;22.804;2023-03-01T21:57:12;100538.28;;;-0.38;79.47
77410;BME280;66481;51.332;22.804;2023-03-01T22:01:16;100542.75;;;-0.48;79.73
77410;BME280;66481;51.332;22.804;2023-03-01T22:05:20;100537.31;;;-0.31;79.32
77410;BME280;66481;51.332;22.804;2023-03-01T22:09:22;100537.22;;;-0.28;79.08
77410;BME280;66481;51.332;22.804;2023-03-01T22:13:24;100532.22;;;-0.40;79.22
77410;BME280;66481;51.332;22.804;2023-03-01T22:17:25;100536.53;;;-0.38;79.30
77410;BME280;66481;51.332;22.804;2023-03-01T22:21:27;100527.16;;;-0.49;80.13
77410;BME280;66481;51.332;22.804;2023-03-01T22:25:28;100528.34;;;-0.69;80.21
77410;BME280;66481;51.332;22.804;2023-03-01T22:29:30;100521.41;;;-0.70;80.58
77410;BME280;66481;51.332;22.804;2023-03-01T22:33:31;100524.13;;;-0.78;80.41
77410;BME280;66481;51.332;22.804;2023-03-01T22:37:32;100514.41;;;-0.66;80.75
77410;BME280;66481;51.332;22.804;2023-03-01T22:41:38;100524.00;;;-0.68;80.19
77410;BME280;66481;51.332;22.804;2023-03-01T22:45:42;100526.75;;;-0.79;80.71
77410;BME280;66481;51.332;22.804;2023-03-01T22:49:46;100516.50;;;-0.90;81.40
77410;BME280;66481;51.332;22.804;2023-03-01T22:53:48;100516.44;;;-0.85;81.77
77410;BME280;66481;51.332;22.804;2023-03-01T22:57:49;100523.34;;;-0.84;82.12
77410;BME280;66481;51.332;22.804;2023-03-01T23:01:52;100525.91;;;-0.81;82.26
77410;BME280;66481;51.332;22.804;2023-03-01T23:05:54;100524.00;;;-0.68;82.28
77410;BME280;66481;51.332;22.804;2023-03-01T23:09:54;100523.63;;;-0.44;81.47
77410;BME280;66481;51.332;22.804;2023-03-01T23:13:57;100512.16;;;-0.32;80.44
77410;BME280;66481;51.332;22.804;2023-03-01T23:17:58;100510.97;;;-0.12;80.30
77410;BME280;66481;51.332;22.804;2023-03-01T23:21:59;100508.28;;;-0.06;80.00
77410;BME280;66481;51.332;22.804;2023-03-01T23:26:01;100503.91;;;-0.04;79.19
77410;BME280;66481;51.332;22.804;2023-03-01T23:30:03;100508.31;;;-0.08;79.57
77410;BME280;66481;51.332;22.804;2023-03-01T23:34:04;100499.66;;;-0.10;79.95
77410;BME280;66481;51.332;22.804;2023-03-01T23:38:05;100505.78;;;-0.12;80.71
77410;BME280;66481;51.332;22.804;2023-03-01T23:42:06;100490.25;;;-0.17;80.64
77410;BME280;66481;51.332;22.804;2023-03-01T23:46:08;100476.47;;;-0.21;81.42
77410;BME280;66481;51.332;22.804;2023-03-01T23:50:14;100484.16;;;-0.16;80.81